Time;durP1;ratioP1;P1;durP2;ratioP2;P2;SDS_P1;SDS_P2;PMS_P1;PMS_P2;Temp;Humidity;BMP_temperature;BMP_pressure;BME280_temperature;BME280_humidity;BME280_pressure;Samples;Min_cycle;Max_cycle;Signal;HPM_P1;HPM_P2
2023/03/28 00:01:38;;;;;;;9.90;5.50;;;;;;;-3.82;68.30;100129.83;103937;277;38334;-71
2023/03/28 00:05:02;;;;;;;;;;;;;;;;;;;;;
2023/03/28 00:07:40;;;;;;;10.90;5.90;;;;;;;-3.84;68.48;100130.30;103829;277;39211;-69
2023/03/28 00:10:34;;;;;;;10.40;6.20;;;;;;;-3.87;68.62;100132.80;104017;275;38494;-69
2023/03/28 00:13:28;;;;;;;9.30;5.50;;;;;;;-3.91;68.60;100130.54;103933;276;39977;-70
2023/03/28 00:16:12;;;;;;;8.30;5.50;;;;;;;-3.97;68.49;100126.54;103937;277;38297;-69
2023/03/28 00:18:51;;;;;;;11.50;5.60;;;;;;;-4.03;68.74;100126.41;103880;277;39591;-69
2023/03/28 00:21:28;;;;;;;8.20;4.80;;;;;;;-4.08;68.76;100125.31;103902;277;38430;-70
2023/03/28 00:24:04;;;;;;;11.00;4.90;;;;;;;-4.10;69.04;100122.71;103924;277;38749;-70
2023/03/28 00:26:38;;;;;;;9.20;5.00;;;;;;;-4.09;69.21;100119.66;103888;277;38801;-70
2023/03/28 00:29:19;;;;;;;7.00;4.60;;;;;;;-4.05;69.35;100116.48;103936;277;39425;-72
2023/03/28 00:31:53;;;;;;;10.60;4.90;;;;;;;-4.01;69.65;100114.34;103901;277;39280;-68
2023/03/28 00:34:35;;;;;;;8.60;4.80;;;;;;;-4.01;69.56;100112.48;103770;267;39449;-68
2023/03/28 00:37:09;;;;;;;9.70;5.00;;;;;;;-4.00;69.58;100113.00;103897;277;38844;-67
2023/03/28 00:39:48;;;;;;;9.20;5.00;;;;;;;-4.04;69.53;100120.09;103871;277;39406;-68
2023/03/28 00:45:46;;;;;;;8.90;4.50;;;;;;;-4.24;69.61;100119.06;103962;277;38731;-68
2023/03/28 00:48:27;;;;;;;7.20;4.50;;;;;;;-4.32;69.60;100116.37;104010;277;41750;-69
2023/03/28 00:51:04;;;;;;;7.50;4.70;;;;;;;-4.38;69.57;100113.20;104040;277;38318;-68
2023/03/28 00:53:40;;;;;;;8.60;4.60;;;;;;;-4.40;69.84;100118.60;103339;277;924871;-67
2023/03/28 00:56:16;;;;;;;7.90;4.60;;;;;;;-4.40;70.08;100113.86;103882;277;38829;-69
2023/03/28 00:58:51;;;;;;;9.30;4.70;;;;;;;-4.39;70.17;100110.80;103895;266;38293;-70
2023/03/28 01:01:27;;;;;;;11.90;6.10;;;;;;;-4.40;70.22;100112.31;103887;277;38222;-68
2023/03/28 01:04:08;;;;;;;10.90;5.70;;;;;;;-4.44;70.30;100110.38;103787;277;38903;-67
2023/03/28 01:06:47;;;;;;;13.30;6.80;;;;;;;-4.48;70.33;100110.98;103773;277;176208;-70
2023/03/28 01:09:22;;;;;;;10.90;6.70;;;;;;;-4.52;70.43;100114.48;103808;278;38527;-68
2023/03/28 01:11:58;;;;;;;11.90;6.30;;;;;;;-4.57;70.53;100113.86;103821;278;39909;-69
2023/03/28 01:14:39;;;;;;;12.70;6.60;;;;;;;-4.60;70.63;100106.31;103854;277;38294;-67
2023/03/28 01:17:16;;;;;;;11.10;6.50;;;;;;;-4.61;70.96;100105.80;103956;277;38274;-68
2023/03/28 01:20:06;;;;;;;11.10;6.30;;;;;;;-4.60;71.13;100098.15;103911;277;38419;-70
2023/03/28 01:23:19;;;;;;;12.50;6.70;;;;;;;-4.59;71.39;100093.23;103921;277;38359;-70
2023/03/28 01:26:41;;;;;;;11.90;6.90;;;;;;;-4.63;71.46;100097.77;103946;277;40165;-69
2023/03/28 01:30:06;;;;;;;13.90;7.10;;;;;;;-4.67;71.76;100090.88;103351;283;38296;-68
2023/03/28 01:33:12;;;;;;;14.30;7.30;;;;;;;-4.72;71.81;100077.17;103919;277;38452;-70
2023/03/28 01:36:23;;;;;;;12.80;7.80;;;;;;;-4.76;71.97;100078.27;103424;277;38732;-69
2023/03/28 01:39:02;;;;;;;13.70;7.00;;;;;;;-4.78;72.28;100077.21;103859;277;39437;-70
2023/03/28 01:41:44;;;;;;;12.60;7.90;;;;;;;-4.78;72.61;100075.17;103930;277;38304;-69
2023/03/28 01:44:24;;;;;;;12.00;7.10;;;;;;;-4.76;72.71;100077.09;103893;277;40431;-68
2023/03/28 01:47:11;;;;;;;13.80;7.30;;;;;;;-4.74;72.75;100081.54;103912;277;38996;-69
2023/03/28 01:50:02;;;;;;;14.70;7.90;;;;;;;-4.75;72.81;100084.42;103978;277;39519;-69
2023/03/28 01:52:41;;;;;;;13.20;8.00;;;;;;;-4.78;72.79;100085.21;103973;277;40211;-70
2023/03/28 01:55:19;;;;;;;18.00;8.50;;;;;;;-4.82;72.81;100080.73;103962;277;38399;-70
2023/03/28 01:57:56;;;;;;;15.10;8.80;;;;;;;-4.87;72.81;100079.25;103987;277;38331;-69
2023/03/28 02:00:33;;;;;;;16.80;9.30;;;;;;;-4.90;73.02;100074.77;103940;277;38248;-68
2023/03/28 02:03:10;;;;;;;17.10;10.10;;;;;;;-4.90;73.21;100074.94;103952;266;38233;-71
2023/03/28 02:05:44;;;;;;;16.30;8.70;;;;;;;-4.89;73.29;100073.60;103975;277;38290;-70
2023/03/28 02:08:29;;;;;;;16.20;8.80;;;;;;;-4.86;73.58;100076.21;103931;277;39324;-68
2023/03/28 02:11:06;;;;;;;17.10;9.80;;;;;;;-4.84;73.66;100071.48;103974;277;38264;-69
2023/03/28 02:13:44;;;;;;;16.50;9.60;;;;;;;-4.82;73.77;100063.03;103932;277;38515;-68
2023/03/28 02:16:22;;;;;;;17.80;10.30;;;;;;;-4.81;73.76;100062.02;103969;277;38262;-68
2023/03/28 02:19:00;;;;;;;17.60;10.40;;;;;;;-4.84;73.76;100067.58;103923;277;40099;-68
2023/03/28 02:21:36;;;;;;;21.40;11.10;;;;;;;-4.89;73.79;100072.59;103834;278;38700;-71
2023/03/28 02:24:12;;;;;;;20.20;10.00;;;;;;;-4.88;74.06;100075.83;103973;277;38528;-71
2023/03/28 02:26:46;;;;;;;18.00;11.20;;;;;;;-4.86;74.16;100074.02;103955;277;38691;-70
2023/03/28 02:29:20;;;;;;;19.30;10.20;;;;;;;-4.81;74.42;100070.36;103949;277;38283;-68
2023/03/28 02:31:58;;;;;;;19.50;11.50;;;;;;;-4.75;74.60;100067.24;103938;277;38488;-69
2023/03/28 02:34:34;;;;;;;20.20;11.30;;;;;;;-4.71;74.51;100064.95;103959;277;38578;-70
2023/03/28 02:37:15;;;;;;;22.90;12.10;;;;;;;-4.70;74.62;100064.61;103997;277;38828;-68
2023/03/28 02:40:00;;;;;;;22.10;12.20;;;;;;;-4.71;74.56;100062.89;103943;277;38606;-67
2023/03/28 02:43:06;;;;;;;24.80;12.40;;;;;;;-4.73;74.56;100060.31;103820;278;38268;-69
2023/03/28 02:45:59;;;;;;;25.20;12.60;;;;;;;-4.77;74.62;100057.84;103973;277;38232;-70
2023/03/28 02:48:51;;;;;;;24.30;12.80;;;;;;;-4.81;74.80;100057.06;103954;277;38428;-68
2023/03/28 02:51:33;;;;;;;20.50;11.00;;;;;;;-4.80;74.93;100049.10;103963;277;38288;-70
2023/03/28 02:54:22;;;;;;;19.50;10.50;;;;;;;-4.77;75.11;100050.71;103938;277;38512;-69
2023/03/28 02:57:02;;;;;;;18.20;11.00;;;;;;;-4.71;75.19;100050.64;104017;277;39142;-69
2023/03/28 02:59:41;;;;;;;21.10;11.20;;;;;;;-4.69;75.27;100050.01;103973;277;39023;-71
2023/03/28 03:02:19;;;;;;;20.20;12.00;;;;;;;-4.65;75.39;100043.92;104002;277;39645;-71
2023/03/28 03:04:56;;;;;;;21.50;12.30;;;;;;;-4.63;75.44;100034.09;103929;277;38233;-69
2023/03/28 03:07:33;;;;;;;24.80;13.10;;;;;;;-4.61;75.71;100032.10;103810;277;38509;-67
2023/03/28 03:10:14;;;;;;;19.80;12.00;;;;;;;-4.60;75.96;100029.72;103947;277;38415;-69
2023/03/28 03:12:52;;;;;;;19.60;10.90;;;;;;;-4.60;75.99;100029.22;103817;277;38278;-69
2023/03/28 03:15:34;;;;;;;15.20;9.50;;;;;;;-4.56;76.21;100027.94;103949;277;38550;-68
2023/03/28 03:18:13;;;;;;;20.30;10.60;;;;;;;-4.48;76.24;100027.06;103834;277;38281;-67
2023/03/28 03:20:57;;;;;;;15.50;9.90;;;;;;;-4.38;76.43;100027.05;103968;266;39471;-68
2023/03/28 03:23:40;;;;;;;20.90;10.80;;;;;;;-4.27;76.75;100027.73;103943;277;39391;-67
2023/03/28 03:26:16;;;;;;;18.60;11.00;;;;;;;-4.17;76.87;100026.37;103956;277;38295;-71
2023/03/28 03:28:56;;;;;;;17.90;10.90;;;;;;;-4.07;76.80;100028.39;103826;277;38449;-71
2023/03/28 03:31:31;;;;;;;16.30;10.10;;;;;;;-3.96;76.98;100025.15;103961;277;38960;-69
2023/03/28 03:34:06;;;;;;;16.80;9.50;;;;;;;-3.84;76.96;100027.70;103959;277;38334;-68
2023/03/28 03:36:41;;;;;;;18.00;9.80;;;;;;;-3.72;76.94;100026.70;103954;277;38336;-69
2023/03/28 03:39:15;;;;;;;19.90;10.70;;;;;;;-3.63;76.74;100024.45;103969;277;38422;-72
2023/03/28 03:45:40;;;;;;;16.40;8.80;;;;;;;-3.46;76.55;100014.26;104161;276;38316;-71
2023/03/28 03:48:14;;;;;;;16.00;9.80;;;;;;;-3.42;76.36;100015.67;104086;276;38383;-68
2023/03/28 03:50:55;;;;;;;19.10;10.30;;;;;;;-3.41;76.27;100012.95;104054;276;38473;-69
2023/03/28 03:53:34;;;;;;;16.00;9.20;;;;;;;-3.40;76.15;100013.98;104091;276;38249;-69
2023/03/28 03:56:11;;;;;;;14.10;8.60;;;;;;;-3.41;75.96;100011.59;104054;276;38237;-68
2023/03/28 03:58:46;;;;;;;12.90;8.70;;;;;;;-3.41;75.99;100011.08;104065;276;38239;-68
2023/03/28 04:01:20;;;;;;;13.50;7.80;;;;;;;-3.36;75.99;100018.64;104077;276;39033;-69
2023/03/28 04:03:54;;;;;;;16.50;8.00;;;;;;;-3.31;75.92;100018.02;104074;276;38324;-72
2023/03/28 04:06:29;;;;;;;17.00;9.50;;;;;;;-3.29;75.88;100015.33;104057;276;39563;-70
2023/03/28 04:09:05;;;;;;;14.10;8.70;;;;;;;-3.28;75.90;100011.06;104075;276;38535;-69
2023/03/28 04:11:41;;;;;;;17.20;9.50;;;;;;;-3.29;75.75;100011.75;104089;276;38460;-70
2023/03/28 04:14:19;;;;;;;17.60;9.20;;;;;;;-3.34;75.53;100009.63;104084;276;38585;-69
2023/03/28 04:16:55;;;;;;;13.30;9.50;;;;;;;-3.42;75.47;100013.98;103883;276;38298;-66
2023/03/28 04:19:30;;;;;;;15.80;9.20;;;;;;;-3.44;75.50;100013.27;103911;277;38498;-68
2023/03/28 04:22:06;;;;;;;14.40;8.50;;;;;;;-3.44;75.54;100012.58;104148;276;38484;-67
2023/03/28 04:24:43;;;;;;;15.00;8.90;;;;;;;-3.43;75.37;100009.18;104071;276;38423;-68
2023/03/28 04:27:20;;;;;;;15.10;8.80;;;;;;;-3.40;75.59;100003.42;104068;276;39084;-69
2023/03/28 04:29:54;;;;;;;16.00;9.00;;;;;;;-3.35;75.57;100005.00;104064;276;38636;-69
2023/03/28 04:32:28;;;;;;;16.70;9.60;;;;;;;-3.31;75.76;100007.10;104107;276;39427;-70
2023/03/28 04:35:03;;;;;;;14.70;9.20;;;;;;;-3.27;75.71;100002.20;104082;276;38806;-68
2023/03/28 04:37:42;;;;;;;16.90;10.80;;;;;;;-3.27;75.58;100007.16;103997;276;38258;-66
2023/03/28 04:40:17;;;;;;;16.00;9.30;;;;;;;-3.27;75.63;100005.79;103909;276;172943;-66
2023/03/28 04:42:55;;;;;;;19.10;9.60;;;;;;;-3.25;75.84;100001.73;104092;276;38382;-69
2023/03/28 04:45:31;;;;;;;15.70;9.40;;;;;;;-3.21;76.01;100001.77;104108;276;38225;-69
2023/03/28 04:48:14;;;;;;;16.00;8.80;;;;;;;-3.15;75.81;100000.83;103963;276;176098;-69
2023/03/28 04:54:43;;;;;;;17.10;9.60;;;;;;;-3.08;75.67;100006.52;104092;276;38330;-68
2023/03/28 04:57:21;;;;;;;16.20;9.20;;;;;;;-3.02;75.63;100003.34;103847;278;38433;-68
2023/03/28 04:59:56;;;;;;;18.50;10.10;;;;;;;-2.98;75.47;100004.94;103818;278;38245;-74
2023/03/28 05:02:31;;;;;;;17.30;10.00;;;;;;;-2.93;75.66;100004.64;103806;278;39554;-69
2023/03/28 05:05:07;;;;;;;20.50;10.60;;;;;;;-2.88;75.64;100008.79;103715;278;189328;-68
2023/03/28 05:07:43;;;;;;;15.70;8.80;;;;;;;-2.83;75.53;100011.73;103683;278;38247;-69
2023/03/28 05:10:20;;;;;;;16.30;9.00;;;;;;;-2.78;75.69;100009.58;103818;278;38745;-69
2023/03/28 05:16:20;;;;;;;17.00;8.70;;;;;;;-2.52;75.64;100006.58;104030;276;38520;-70
2023/03/28 05:18:56;;;;;;;16.20;9.50;;;;;;;-2.33;75.68;100000.08;104015;276;38307;-70
2023/03/28 05:21:31;;;;;;;18.50;9.80;;;;;;;-1.97;77.43;99996.25;104027;276;38321;-69
2023/03/28 05:24:10;;;;;;;16.50;9.80;;;;;;;-1.13;78.17;100000.42;103991;276;38254;-67
2023/03/28 05:26:53;;;;;;;18.00;9.60;;;;;;;-0.45;78.37;99990.61;104030;277;38250;-71
2023/03/28 05:29:27;;;;;;;16.00;9.40;;;;;;;0.51;77.52;99993.92;104008;277;38228;-68
2023/03/28 05:32:02;;;;;;;17.20;9.70;;;;;;;0.63;73.66;99995.27;104038;276;38403;-69
2023/03/28 05:34:36;;;;;;;20.90;10.00;;;;;;;0.53;71.98;99994.44;104017;276;39532;-69
2023/03/28 05:37:12;;;;;;;21.00;10.40;;;;;;;0.40;70.87;99997.23;104008;276;39412;-69
2023/03/28 05:39:46;;;;;;;23.30;10.90;;;;;;;0.29;70.40;99994.68;104044;276;38272;-68
2023/03/28 05:42:23;;;;;;;25.30;10.80;;;;;;;0.25;70.25;99995.38;104002;276;38269;-71
2023/03/28 05:44:58;;;;;;;21.70;10.80;;;;;;;0.23;70.33;99994.86;104035;276;38295;-69
2023/03/28 05:47:33;;;;;;;18.30;10.40;;;;;;;0.22;69.94;100000.52;104033;276;38418;-69
2023/03/28 05:50:09;;;;;;;18.30;10.80;;;;;;;0.17;69.53;99999.52;104010;276;38275;-71
2023/03/28 05:52:43;;;;;;;19.10;11.40;;;;;;;0.09;69.38;99998.14;104066;276;38918;-71
2023/03/28 05:55:17;;;;;;;20.90;11.00;;;;;;;0.00;69.45;100000.73;103956;276;38811;-69
2023/03/28 05:57:51;;;;;;;23.30;11.50;;;;;;;-0.07;69.47;100006.91;103987;276;38420;-71
2023/03/28 06:00:26;;;;;;;19.10;10.70;;;;;;;-0.15;69.85;100010.52;103996;276;39415;-73
2023/03/28 06:03:01;;;;;;;20.30;11.20;;;;;;;-0.20;69.92;100016.86;103984;276;39435;-71
2023/03/28 06:05:35;;;;;;;21.60;11.50;;;;;;;-0.22;70.11;100015.66;104021;276;38818;-71
2023/03/28 06:08:09;;;;;;;18.30;10.90;;;;;;;-0.18;70.38;100013.60;103994;276;38274;-68
2023/03/28 06:10:52;;;;;;;20.40;12.30;;;;;;;-0.14;70.59;100017.90;103971;276;38246;-69
2023/03/28 06:13:26;;;;;;;18.30;12.10;;;;;;;-0.11;70.73;100016.69;104023;276;38549;-69
2023/03/28 06:16:01;;;;;;;19.60;12.10;;;;;;;-0.09;70.96;100020.98;104022;276;38394;-70
2023/03/28 06:18:35;;;;;;;22.60;12.90;;;;;;;-0.07;71.00;100019.24;103782;279;38633;-70
2023/03/28 06:21:10;;;;;;;19.40;12.20;;;;;;;-0.03;71.20;100024.73;103828;277;38535;-69
2023/03/28 06:23:44;;;;;;;24.90;13.50;;;;;;;-0.02;71.53;100022.85;104011;276;38711;-70
2023/03/28 06:26:18;;;;;;;24.20;13.30;;;;;;;-0.02;71.76;100023.70;104015;276;38883;-72
2023/03/28 06:28:53;;;;;;;21.60;12.40;;;;;;;-0.02;72.04;100023.20;104003;276;38542;-72
2023/03/28 06:31:27;;;;;;;21.60;11.90;;;;;;;0.03;72.23;100024.56;104033;266;39806;-70
2023/03/28 06:34:01;;;;;;;21.50;12.40;;;;;;;0.06;72.33;100027.14;104014;276;38608;-68
2023/03/28 06:36:36;;;;;;;22.30;12.80;;;;;;;0.10;72.45;100028.16;103997;276;38780;-72
2023/03/28 06:39:11;;;;;;;21.70;12.90;;;;;;;0.13;72.70;100027.98;104015;277;39470;-71
2023/03/28 06:41:45;;;;;;;20.80;12.10;;;;;;;0.15;72.58;100028.50;104026;276;38359;-70
2023/03/28 06:44:19;;;;;;;22.60;12.80;;;;;;;0.15;72.85;100027.98;104016;276;39649;-71
2023/03/28 06:46:54;;;;;;;21.40;13.80;;;;;;;0.14;73.07;100033.98;103892;276;175611;-70
2023/03/28 06:49:28;;;;;;;22.60;12.10;;;;;;;0.11;73.11;100036.05;103994;276;39511;-69
2023/03/28 06:52:02;;;;;;;22.40;12.90;;;;;;;0.10;73.16;100039.14;104028;277;38246;-70
2023/03/28 06:54:37;;;;;;;20.10;11.40;;;;;;;0.09;73.23;100040.34;104009;265;38367;-71
2023/03/28 06:57:12;;;;;;;23.30;13.20;;;;;;;0.10;73.40;100041.02;103985;277;38859;-72
2023/03/28 06:59:46;;;;;;;25.80;14.00;;;;;;;0.11;73.79;100043.09;103859;276;175552;-69
2023/03/28 07:02:21;;;;;;;25.30;14.10;;;;;;;0.17;73.98;100044.96;103852;277;38723;-69
2023/03/28 07:04:56;;;;;;;25.70;15.00;;;;;;;0.25;74.37;100047.34;104026;276;38472;-69
2023/03/28 07:07:30;;;;;;;24.30;14.90;;;;;;;0.34;74.68;100047.17;104024;276;39901;-70
2023/03/28 07:10:06;;;;;;;25.20;14.40;;;;;;;0.42;74.58;100051.27;104056;277;39995;-72
2023/03/28 07:12:41;;;;;;;22.90;13.90;;;;;;;0.49;74.54;100055.02;104008;277;39309;-72
2023/03/28 07:15:15;;;;;;;25.10;13.60;;;;;;;0.56;74.82;100055.35;104026;276;39963;-70
2023/03/28 07:17:50;;;;;;;21.40;12.80;;;;;;;0.65;74.94;100058.26;104080;276;38570;-71
2023/03/28 07:20:25;;;;;;;19.20;13.10;;;;;;;0.73;74.86;100063.38;104009;276;38407;-70
2023/03/28 07:23:00;;;;;;;21.30;12.40;;;;;;;0.85;74.97;100062.83;104016;276;38869;-70
2023/03/28 07:25:47;;;;;;;20.40;12.60;;;;;;;0.96;74.95;100069.30;103824;277;38444;-69
2023/03/28 07:28:24;;;;;;;18.40;12.00;;;;;;;1.06;74.82;100068.07;104023;266;38269;-68
2023/03/28 07:31:08;;;;;;;22.00;13.80;;;;;;;1.16;74.64;100069.05;104060;276;39706;-69
2023/03/28 07:33:49;;;;;;;19.40;12.90;;;;;;;1.21;74.68;100074.70;103982;276;38283;-69
2023/03/28 07:36:28;;;;;;;21.10;13.00;;;;;;;1.29;74.86;100071.40;104056;276;38889;-68
2023/03/28 07:39:04;;;;;;;23.20;13.50;;;;;;;1.40;75.00;100073.05;104015;277;38234;-68
2023/03/28 07:41:39;;;;;;;17.00;10.40;;;;;;;1.54;74.96;100080.36;103977;277;38853;-68
2023/03/28 07:44:19;;;;;;;14.60;10.30;;;;;;;1.70;74.92;100082.67;104025;277;39275;-68
2023/03/28 07:46:54;;;;;;;14.60;10.10;;;;;;;1.90;74.64;100079.44;104040;276;39661;-70
2023/03/28 07:49:29;;;;;;;14.30;9.90;;;;;;;2.05;74.29;100078.98;104054;277;38814;-71
2023/03/28 07:52:04;;;;;;;15.60;10.30;;;;;;;2.18;73.98;100079.91;104017;276;38362;-69
2023/03/28 07:54:38;;;;;;;15.20;10.20;;;;;;;2.35;74.02;100080.96;104020;276;39029;-70
2023/03/28 07:57:14;;;;;;;15.90;10.70;;;;;;;2.53;73.97;100081.64;104065;276;38245;-71
2023/03/28 07:59:49;;;;;;;15.40;9.90;;;;;;;2.72;73.82;100081.27;103894;277;172982;-72
2023/03/28 08:02:24;;;;;;;14.30;9.70;;;;;;;2.91;73.46;100091.06;104023;277;38257;-67
2023/03/28 08:05:01;;;;;;;14.80;10.30;;;;;;;3.10;73.10;100090.49;103972;277;38232;-71
2023/03/28 08:07:36;;;;;;;15.20;9.20;;;;;;;3.33;73.19;100087.44;104023;276;38755;-70
2023/03/28 08:10:12;;;;;;;13.70;8.40;;;;;;;3.62;72.84;100089.81;104023;276;38886;-72
2023/03/28 08:12:47;;;;;;;8.10;6.60;;;;;;;3.83;71.42;100088.81;104076;276;38541;-72
2023/03/28 08:15:22;;;;;;;9.50;6.50;;;;;;;3.84;69.38;100096.39;103979;277;38291;-71
2023/03/28 08:17:56;;;;;;;8.70;6.30;;;;;;;3.81;69.10;100097.48;104000;277;39274;-69
2023/03/28 08:20:31;;;;;;;7.80;5.80;;;;;;;3.96;69.06;100098.29;104024;277;38254;-70
2023/03/28 08:23:06;;;;;;;8.90;6.70;;;;;;;4.25;69.13;100101.79;104005;277;39803;-70
2023/03/28 08:25:41;;;;;;;8.70;6.70;;;;;;;4.45;68.31;100101.63;103886;277;175621;-70
2023/03/28 08:28:16;;;;;;;7.70;5.80;;;;;;;4.58;67.24;100100.19;104040;276;38248;-72
2023/03/28 08:30:51;;;;;;;6.10;5.20;;;;;;;4.65;66.62;100101.27;104030;277;38507;-70
2023/03/28 08:33:27;;;;;;;7.00;5.50;;;;;;;4.70;66.37;100100.31;104033;276;39848;-71
2023/03/28 08:36:02;;;;;;;5.70;4.80;;;;;;;5.29;68.79;100102.09;103978;276;39395;-70
2023/03/28 08:38:38;;;;;;;4.80;4.10;;;;;;;6.73;67.85;100095.25;104048;276;39597;-72
2023/03/28 08:41:22;;;;;;;5.50;3.90;;;;;;;7.55;62.48;100093.46;103826;276;38302;-71
2023/03/28 08:44:10;;;;;;;4.00;3.50;;;;;;;7.87;59.68;100090.75;103883;276;38483;-70
2023/03/28 08:46:46;;;;;;;4.90;3.50;;;;;;;7.89;58.33;100094.87;104035;277;38431;-70
2023/03/28 08:49:20;;;;;;;4.90;3.70;;;;;;;8.09;56.94;100096.30;104005;276;39401;-72
2023/03/28 08:51:56;;;;;;;4.50;3.70;;;;;;;8.05;55.39;100099.73;104012;277;39397;-69
2023/03/28 08:54:36;;;;;;;5.30;4.00;;;;;;;7.79;55.56;100095.48;103895;276;174838;-70
2023/03/28 08:57:13;;;;;;;5.00;4.10;;;;;;;7.64;55.18;100100.14;104022;276;38812;-71
2023/03/28 08:59:51;;;;;;;4.00;3.50;;;;;;;7.53;54.94;100105.34;104006;277;39464;-71
2023/03/28 09:02:27;;;;;;;4.70;3.70;;;;;;;7.33;53.76;100109.91;104010;276;38249;-73
2023/03/28 09:05:02;;;;;;;4.70;3.90;;;;;;;6.96;53.74;100116.50;104060;276;39497;-71
2023/03/28 09:07:40;;;;;;;5.30;4.20;;;;;;;6.58;54.31;100122.16;103844;277;39311;-73
2023/03/28 09:10:20;;;;;;;6.60;4.80;;;;;;;6.23;54.83;100131.17;104043;276;38317;-73
2023/03/28 09:13:05;;;;;;;6.60;5.00;;;;;;;5.77;56.79;100151.08;104035;277;39103;-73
2023/03/28 09:15:48;;;;;;;7.30;5.50;;;;;;;5.24;58.43;100161.18;103999;276;38474;-70
2023/03/28 09:18:37;;;;;;;7.00;5.90;;;;;;;4.80;59.61;100167.36;103964;276;38727;-71
2023/03/28 09:21:17;;;;;;;8.00;7.10;;;;;;;4.40;60.74;100173.73;104024;276;38336;-71
2023/03/28 09:24:10;;;;;;;9.70;7.30;;;;;;;4.05;61.55;100177.55;103999;276;38580;-72
2023/03/28 09:26:47;;;;;;;8.70;6.50;;;;;;;3.73;62.68;100182.99;104088;276;38279;-68
2023/03/28 09:29:23;;;;;;;7.70;6.80;;;;;;;3.48;63.68;100187.09;104029;276;38247;-68
2023/03/28 09:32:00;;;;;;;7.80;7.10;;;;;;;3.29;63.80;100194.73;104029;276;38273;-72
2023/03/28 09:34:39;;;;;;;10.10;8.00;;;;;;;3.09;64.17;100202.70;103534;276;691028;-73
2023/03/28 09:37:24;;;;;;;9.90;8.20;;;;;;;2.90;64.20;100210.30;103820;279;38842;-72
2023/03/28 09:40:00;;;;;;;12.50;9.30;;;;;;;2.69;64.45;100216.86;104036;276;39428;-70
2023/03/28 09:42:39;;;;;;;11.00;8.80;;;;;;;2.58;64.89;100218.85;104055;277;38490;-70
2023/03/28 09:45:29;;;;;;;11.00;8.60;;;;;;;2.54;65.48;100229.55;104009;276;39195;-71
2023/03/28 09:48:03;;;;;;;11.40;8.40;;;;;;;2.50;65.80;100231.98;104016;276;38426;-70
2023/03/28 09:50:37;;;;;;;10.60;9.30;;;;;;;2.48;65.91;100234.23;104000;276;38669;-70
2023/03/28 09:53:20;;;;;;;11.30;9.40;;;;;;;2.52;66.58;100234.56;103794;277;38405;-70
2023/03/28 09:55:54;;;;;;;11.40;9.40;;;;;;;2.58;66.98;100238.98;104027;276;39867;-72
2023/03/28 09:58:29;;;;;;;10.20;8.90;;;;;;;2.65;66.77;100240.83;103961;277;38267;-68
2023/03/28 10:01:04;;;;;;;12.20;9.20;;;;;;;2.65;66.67;100251.86;103838;277;38045;-70
2023/03/28 10:03:38;;;;;;;10.80;8.90;;;;;;;2.63;66.73;100256.70;104005;276;38818;-71
2023/03/28 10:06:26;;;;;;;11.10;8.50;;;;;;;2.59;66.47;100261.89;103797;278;38819;-71
2023/03/28 10:09:18;;;;;;;11.00;7.60;;;;;;;2.53;66.09;100268.82;104016;276;38803;-71
2023/03/28 10:11:54;;;;;;;8.40;7.20;;;;;;;2.47;65.93;100277.63;103999;276;38337;-72
2023/03/28 10:14:40;;;;;;;7.70;6.90;;;;;;;2.41;65.09;100279.74;104046;276;38717;-73
2023/03/28 10:17:18;;;;;;;7.90;5.70;;;;;;;2.34;64.57;100280.65;104021;276;39406;-71
2023/03/28 10:19:53;;;;;;;6.40;5.20;;;;;;;2.30;64.27;100287.56;104004;276;38266;-70
2023/03/28 10:22:32;;;;;;;5.30;4.20;;;;;;;2.27;63.82;100298.08;104024;276;38740;-70
2023/03/28 10:25:07;;;;;;;5.40;4.30;;;;;;;2.17;63.10;100301.05;103997;276;38419;-71
2023/03/28 10:27:41;;;;;;;5.00;3.60;;;;;;;2.08;63.23;100306.09;104003;277;38453;-70
2023/03/28 10:30:24;;;;;;;3.80;3.40;;;;;;;2.01;63.18;100310.41;103979;276;38265;-70
2023/03/28 10:33:23;;;;;;;4.00;3.20;;;;;;;1.97;63.00;100316.79;104036;276;38712;-70
2023/03/28 10:36:03;;;;;;;5.40;3.00;;;;;;;1.88;62.89;100323.20;104048;277;38887;-71
2023/03/28 10:38:48;;;;;;;3.40;2.90;;;;;;;1.80;62.03;100324.77;103952;277;38480;-69
2023/03/28 10:41:25;;;;;;;4.40;3.40;;;;;;;1.74;62.40;100332.70;103823;278;38522;-73
2023/03/28 10:44:00;;;;;;;3.80;3.00;;;;;;;1.71;62.10;100336.84;103808;278;38238;-73
2023/03/28 10:46:39;;;;;;;4.10;3.50;;;;;;;1.70;62.74;100341.81;103640;280;38822;-70
2023/03/28 10:49:17;;;;;;;;;;;;;;;1.74;62.90;100345.77;103832;278;38877;-69
2023/03/28 10:51:51;;;;;;;3.70;3.40;;;;;;;1.73;63.06;100349.56;103667;278;41785;-71
2023/03/28 10:54:49;;;;;;;4.10;3.40;;;;;;;1.77;63.23;100351.08;103842;278;39613;-71
2023/03/28 10:57:27;;;;;;;4.20;3.10;;;;;;;1.83;62.98;100350.91;103812;267;39629;-72
2023/03/28 11:00:07;;;;;;;4.40;3.40;;;;;;;1.88;62.36;100357.09;103801;278;38282;-71
2023/03/28 11:03:18;;;;;;;3.80;3.10;;;;;;;1.96;62.84;100358.61;103865;278;39416;-72
2023/03/28 11:05:55;;;;;;;3.50;3.20;;;;;;;2.09;61.92;100353.92;103692;279;40205;-70
2023/03/28 11:08:42;;;;;;;4.30;3.00;;;;;;;2.18;61.56;100361.62;103709;279;39289;-71
2023/03/28 11:11:30;;;;;;;3.10;2.70;;;;;;;2.21;60.52;100365.75;103674;279;38718;-71
2023/03/28 11:14:08;;;;;;;4.30;3.00;;;;;;;2.19;60.10;100364.72;103664;279;38523;-71
2023/03/28 11:16:48;;;;;;;3.40;2.50;;;;;;;2.19;59.61;100372.64;103673;279;38708;-71
2023/03/28 11:19:38;;;;;;;3.90;2.30;;;;;;;2.14;58.97;100375.41;103685;279;38347;-71
2023/03/28 11:22:19;;;;;;;4.30;2.80;;;;;;;2.07;58.55;100381.97;103691;279;38398;-70
2023/03/28 11:24:56;;;;;;;3.20;2.30;;;;;;;2.03;58.57;100385.23;103680;279;38227;-69
2023/03/28 11:27:34;;;;;;;4.10;2.50;;;;;;;2.01;58.77;100392.33;103693;279;38424;-69
2023/03/28 11:30:11;;;;;;;4.20;2.70;;;;;;;1.99;58.15;100394.55;103706;279;39499;-70
2023/03/28 11:32:48;;;;;;;4.70;2.50;;;;;;;2.00;58.35;100404.01;103649;279;38274;-70
2023/03/28 11:35:26;;;;;;;3.60;2.00;;;;;;;2.07;58.41;100400.04;103716;279;40119;-71
2023/03/28 11:38:04;;;;;;;3.50;2.00;;;;;;;2.16;57.80;100408.26;103726;279;39570;-69
2023/03/28 11:40:50;;;;;;;2.40;1.80;;;;;;;2.22;57.07;100409.98;103663;279;38558;-68
2023/03/28 11:43:32;;;;;;;3.40;1.90;;;;;;;2.31;58.12;100410.80;103668;279;38403;-70
2023/03/28 11:46:09;;;;;;;2.90;1.70;;;;;;;2.45;57.44;100417.80;103683;279;39475;-72
2023/03/28 11:48:47;;;;;;;2.30;1.50;;;;;;;2.56;56.39;100414.48;103691;279;39424;-73
2023/03/28 11:51:23;;;;;;;1.80;1.50;;;;;;;2.64;54.21;100419.77;103733;279;39937;-71
2023/03/28 11:54:01;;;;;;;2.50;1.40;;;;;;;2.72;53.84;100420.77;103688;279;39400;-73
2023/03/28 11:56:47;;;;;;;3.20;2.10;;;;;;;2.87;54.68;100426.21;103660;279;39042;-69
2023/03/28 11:59:23;;;;;;;3.90;2.10;;;;;;;3.04;53.75;100428.17;103663;279;38826;-69
2023/03/28 12:02:08;;;;;;;3.10;2.20;;;;;;;3.20;54.40;100433.76;103636;279;38743;-74
2023/03/28 12:04:45;;;;;;;4.30;2.30;;;;;;;3.43;53.91;100431.16;103683;279;39632;-70
2023/03/28 12:07:25;;;;;;;2.50;1.70;;;;;;;3.65;53.92;100434.26;103730;279;38280;-70
2023/03/28 12:10:08;;;;;;;3.10;1.60;;;;;;;3.83;52.39;100430.13;103690;279;38262;-68
2023/03/28 12:12:50;;;;;;;3.40;2.10;;;;;;;3.88;52.40;100441.11;103702;279;38856;-72
2023/03/28 12:15:29;;;;;;;3.10;1.70;;;;;;;3.89;51.92;100450.95;103648;279;38556;-69
2023/03/28 12:18:04;;;;;;;2.10;1.60;;;;;;;3.91;51.43;100453.36;103676;267;38565;-72
2023/03/28 12:20:44;;;;;;;1.60;1.20;;;;;;;3.88;50.99;100458.38;103668;279;38289;-71
2023/03/28 12:23:23;;;;;;;2.90;1.70;;;;;;;3.90;50.71;100463.89;103655;279;38570;-70
2023/03/28 12:26:04;;;;;;;1.80;1.40;;;;;;;3.91;50.45;100467.16;103595;279;38631;-70
2023/03/28 12:28:42;;;;;;;2.40;1.80;;;;;;;3.82;49.66;100467.95;103531;279;38599;-70
2023/03/28 12:31:19;;;;;;;2.30;1.50;;;;;;;3.72;48.87;100473.88;103648;279;38343;-71
2023/03/28 12:34:03;;;;;;;2.30;1.40;;;;;;;3.64;49.42;100471.52;103656;279;39400;-72